Time;durP1;ratioP1;P1;durP2;ratioP2;P2;SDS_P1;SDS_P2;PMS_P1;PMS_P2;Temp;Humidity;BMP_temperature;BMP_pressure;BME280_temperature;BME280_humidity;BME280_pressure;Samples;Min_cycle;Max_cycle;Signal;HPM_P1;HPM_P2
2022/09/08 00:00:37;;;;;;;6.20;4.05;;;20.70;99.90;;;;;;5049650;28;20670;-68
2022/09/08 00:03:07;;;;;;;4.30;3.58;;;20.60;99.90;;;;;;5049738;28;20215;-68
2022/09/08 00:05:38;;;;;;;6.25;3.67;;;20.50;99.90;;;;;;5049861;28;20288;-68
2022/09/08 00:08:05;;;;;;;6.57;3.63;;;20.50;99.90;;;;;;5048372;28;20207;-68
2022/09/08 00:10:33;;;;;;;6.55;3.90;;;20.50;99.90;;;;;;5049797;28;20207;-68
2022/09/08 00:13:00;;;;;;;5.05;4.03;;;20.50;99.90;;;;;;5053803;28;20203;-68
2022/09/08 00:15:29;;;;;;;6.03;4.30;;;20.50;99.90;;;;;;5051391;28;20687;-69
2022/09/08 00:17:56;;;;;;;5.82;4.20;;;20.50;99.90;;;;;;5049641;28;20211;-69
2022/09/08 00:20:23;;;;;;;9.18;4.20;;;20.50;99.90;;;;;;5049498;28;20215;-69
2022/09/08 00:22:49;;;;;;;4.32;3.92;;;20.50;99.90;;;;;;5049243;28;20710;-68
2022/09/08 00:25:16;;;;;;;7.90;4.03;;;20.50;99.90;;;;;;5066113;28;20214;-69
2022/09/08 00:27:44;;;;;;;4.05;3.60;;;20.50;99.90;;;;;;5069679;28;20214;-68
2022/09/08 00:30:12;;;;;;;7.78;3.50;;;20.50;99.90;;;;;;5062570;28;20211;-68
2022/09/08 00:32:38;;;;;;;4.80;3.85;;;20.50;99.90;;;;;;5038683;28;20205;-68
2022/09/08 00:35:07;;;;;;;6.47;3.60;;;20.40;99.90;;;;;;5048979;28;20541;-68
2022/09/08 00:37:36;;;;;;;6.97;3.83;;;20.40;99.90;;;;;;5049263;28;20204;-68
2022/09/08 00:40:03;;;;;;;4.22;3.90;;;20.40;99.90;;;;;;5049269;28;20291;-68
2022/09/08 00:42:30;;;;;;;8.48;3.95;;;20.40;99.90;;;;;;5049177;28;20250;-68
2022/09/08 00:44:58;;;;;;;4.10;3.65;;;20.40;99.90;;;;;;5041363;28;20219;-68
2022/09/08 00:47:29;;;;;;;3.80;3.45;;;20.40;99.90;;;;;;5048611;28;20671;-68
2022/09/08 00:50:01;;;;;;;4.78;3.53;;;20.30;99.90;;;;;;5049287;28;20224;-68
2022/09/08 00:52:36;;;;;;;6.72;4.00;;;20.30;99.90;;;;;;5042709;28;20216;-68
2022/09/08 00:55:03;;;;;;;8.57;4.32;;;20.30;99.90;;;;;;5039622;28;20240;-68
2022/09/08 00:57:30;;;;;;;6.15;3.50;;;20.20;99.90;;;;;;5029043;28;20200;-68
2022/09/08 00:59:58;;;;;;;8.30;3.70;;;20.20;99.90;;;;;;5028695;28;20679;-68
2022/09/08 01:02:26;;;;;;;4.10;3.70;;;20.20;99.90;;;;;;5028658;28;20578;-68
2022/09/08 01:04:57;;;;;;;5.22;3.50;;;20.20;99.90;;;;;;5035958;28;20211;-68
2022/09/08 01:13:18;;;;;;;3.50;3.20;;;20.10;99.90;;;;;;5048403;28;20262;-68
2022/09/08 01:15:46;;;;;;;5.77;4.23;;;20.10;99.90;;;;;;5048506;28;20235;-67
2022/09/08 01:18:13;;;;;;;8.95;3.47;;;20.00;99.90;;;;;;5047327;28;20204;-68
2022/09/08 01:20:48;;;;;;;6.72;3.50;;;19.90;99.90;;;;;;5048466;28;20218;-68
2022/09/08 01:23:41;;;;;;;5.50;3.78;;;20.00;99.90;;;;;;5048280;28;20285;-68
2022/09/08 01:26:28;;;;;;;4.80;3.23;;;20.00;99.90;;;;;;5028404;28;20209;-68
2022/09/08 01:28:59;;;;;;;4.67;3.70;;;20.00;99.90;;;;;;5033587;28;20198;-68
2022/09/08 01:31:26;;;;;;;5.27;3.60;;;20.00;99.90;;;;;;5047855;28;20214;-68
2022/09/08 01:33:53;;;;;;;4.53;3.50;;;20.00;99.90;;;;;;5047956;28;20965;-68
2022/09/08 01:36:20;;;;;;;6.30;3.58;;;19.90;99.90;;;;;;5048087;28;20209;-68
2022/09/08 01:38:47;;;;;;;6.87;3.63;;;20.00;99.90;;;;;;5047388;28;20209;-68
2022/09/08 01:41:14;;;;;;;4.17;3.60;;;20.00;99.90;;;;;;5042456;28;20209;-69
2022/09/08 01:43:41;;;;;;;3.97;3.67;;;20.00;99.90;;;;;;5028112;28;20266;-69
2022/09/08 01:46:09;;;;;;;8.67;4.00;;;20.00;99.90;;;;;;5047441;28;20766;-69
2022/09/08 01:48:36;;;;;;;6.33;3.60;;;20.00;99.90;;;;;;5047906;28;20200;-68
2022/09/08 01:51:06;;;;;;;6.43;4.03;;;19.90;99.90;;;;;;5047935;28;20223;-68
2022/09/08 01:53:34;;;;;;;5.00;3.43;;;19.90;99.90;;;;;;5047102;28;20229;-69
2022/09/08 01:56:01;;;;;;;4.47;4.07;;;19.90;99.90;;;;;;5047865;28;20208;-69
2022/09/08 01:58:31;;;;;;;5.83;3.63;;;20.00;99.90;;;;;;5047790;28;20196;-69
2022/09/08 02:00:59;;;;;;;6.43;3.53;;;19.90;99.80;;;;;;5046063;28;20208;-69
2022/09/08 02:03:27;;;;;;;6.60;3.80;;;20.00;99.80;;;;;;5027598;28;20240;-69
2022/09/08 02:05:53;;;;;;;7.10;3.60;;;20.00;99.80;;;;;;5042693;28;20207;-69
2022/09/08 02:08:21;;;;;;;6.28;3.58;;;20.00;99.70;;;;;;5050815;28;20219;-69
2022/09/08 02:10:53;;;;;;;6.50;3.60;;;20.00;99.70;;;;;;5047830;28;20965;-69
2022/09/08 02:13:20;;;;;;;3.92;3.25;;;20.00;99.70;;;;;;5047432;28;20647;-69
2022/09/08 02:15:46;;;;;;;4.00;3.30;;;20.00;99.70;;;;;;5047427;28;20994;-69
2022/09/08 02:18:13;;;;;;;5.87;3.50;;;19.90;99.50;;;;;;5046759;28;20200;-69
2022/09/08 02:20:41;;;;;;;3.83;3.13;;;19.90;99.70;;;;;;5047569;28;20409;-69
2022/09/08 02:23:08;;;;;;;9.03;3.30;;;19.80;99.50;;;;;;5047409;28;20714;-69
2022/09/08 02:25:34;;;;;;;7.53;3.30;;;19.80;99.40;;;;;;5058367;28;20207;-69
2022/09/08 02:28:02;;;;;;;5.43;3.10;;;19.80;99.40;;;;;;5047545;28;20204;-69
2022/09/08 02:30:28;;;;;;;4.35;3.63;;;19.80;99.40;;;;;;5036023;28;20214;-69
2022/09/08 02:32:55;;;;;;;4.70;3.27;;;19.80;99.40;;;;;;5046888;28;20662;-69
2022/09/08 02:35:22;;;;;;;3.88;2.90;;;19.70;99.30;;;;;;5047392;28;20208;-69
2022/09/08 02:37:50;;;;;;;4.90;3.20;;;19.70;99.30;;;;;;5047747;28;20211;-68
2022/09/08 02:40:17;;;;;;;6.90;3.30;;;19.60;99.40;;;;;;5047013;28;20219;-68
2022/09/08 02:42:45;;;;;;;10.60;3.83;;;19.70;99.60;;;;;;5029994;28;20228;-68
2022/09/08 02:45:12;;;;;;;5.70;3.53;;;19.60;99.50;;;;;;5038828;28;20208;-68
2022/09/08 02:47:38;;;;;;;4.27;3.43;;;19.60;99.60;;;;;;5046845;28;20620;-68
2022/09/08 02:50:06;;;;;;;4.63;3.20;;;19.60;99.70;;;;;;5047180;28;20231;-69
2022/09/08 02:52:33;;;;;;;8.77;4.00;;;19.60;99.70;;;;;;5047301;28;20208;-68
2022/09/08 02:55:01;;;;;;;5.00;3.37;;;19.60;99.80;;;;;;5046939;28;20637;-68
2022/09/08 02:57:28;;;;;;;7.40;3.77;;;19.50;99.70;;;;;;5047222;28;20212;-69
2022/09/08 02:59:55;;;;;;;6.27;3.30;;;19.50;99.50;;;;;;5045447;28;20228;-68
2022/09/08 03:02:22;;;;;;;3.83;3.10;;;19.40;99.50;;;;;;5044851;28;20707;-68
2022/09/08 03:04:49;;;;;;;9.83;3.37;;;19.40;99.50;;;;;;5048298;28;20212;-68
2022/09/08 03:07:17;;;;;;;3.70;3.40;;;19.40;99.50;;;;;;5046914;28;20206;-68
2022/09/08 03:09:45;;;;;;;8.40;3.13;;;19.40;99.40;;;;;;5047181;28;20294;-67
2022/09/08 03:12:13;;;;;;;3.57;2.90;;;19.40;99.40;;;;;;5047006;28;20216;-68
2022/09/08 03:14:40;;;;;;;3.30;2.90;;;19.40;99.30;;;;;;5046909;28;20577;-69
2022/09/08 03:17:07;;;;;;;5.90;3.60;;;19.30;99.20;;;;;;5046756;28;20204;-69
2022/09/08 03:19:33;;;;;;;4.37;3.40;;;19.30;99.10;;;;;;5026867;28;20208;-68
2022/09/08 03:22:00;;;;;;;7.30;3.40;;;19.20;99.20;;;;;;5026912;28;20228;-69
2022/09/08 03:24:27;;;;;;;4.90;2.90;;;19.20;99.20;;;;;;5036878;28;20208;-70
2022/09/08 03:26:54;;;;;;;5.27;3.03;;;19.20;99.30;;;;;;5044336;28;20307;-69
2022/09/08 03:29:22;;;;;;;4.87;3.03;;;19.20;99.20;;;;;;5043988;28;20215;-69
2022/09/08 03:31:49;;;;;;;3.57;3.10;;;19.20;99.20;;;;;;5026775;28;20216;-69
2022/09/08 03:34:16;;;;;;;7.90;3.53;;;19.20;99.30;;;;;;5027764;28;20683;-69
2022/09/08 03:36:42;;;;;;;7.80;3.10;;;19.20;99.20;;;;;;5027122;28;20698;-69
2022/09/08 03:39:09;;;;;;;7.17;3.40;;;19.20;99.30;;;;;;5029231;28;20208;-68
2022/09/08 03:41:36;;;;;;;4.53;3.00;;;19.10;99.10;;;;;;5027424;28;20240;-68
2022/09/08 03:44:03;;;;;;;5.00;3.30;;;19.10;99.10;;;;;;5047928;28;20378;-67
2022/09/08 03:46:31;;;;;;;5.03;3.00;;;19.00;99.10;;;;;;5050121;28;20205;-68
2022/09/08 03:48:58;;;;;;;7.10;3.13;;;19.00;99.00;;;;;;5046560;28;20228;-68
2022/09/08 03:51:25;;;;;;;4.73;3.07;;;19.10;99.10;;;;;;5030118;28;20692;-68
2022/09/08 03:53:53;;;;;;;4.37;2.70;;;19.10;99.00;;;;;;5034917;28;20239;-68
2022/09/08 03:56:21;;;;;;;7.43;3.00;;;19.00;99.00;;;;;;5050151;28;20215;-68
2022/09/08 03:58:47;;;;;;;4.57;3.07;;;18.90;99.00;;;;;;5057330;28;20207;-68
2022/09/08 04:01:17;;;;;;;4.83;3.30;;;18.90;99.00;;;;;;5046423;28;20215;-68
2022/09/08 04:03:45;;;;;;;5.87;3.30;;;18.90;99.00;;;;;;5047038;28;20268;-68
2022/09/08 04:06:13;;;;;;;5.03;3.23;;;18.90;99.00;;;;;;5046139;28;20204;-68
2022/09/08 04:08:40;;;;;;;9.00;3.00;;;18.90;99.00;;;;;;5046618;28;20246;-67
2022/09/08 04:11:07;;;;;;;4.93;3.10;;;18.90;99.00;;;;;;5047860;28;20215;-67
2022/09/08 04:13:34;;;;;;;5.10;3.03;;;18.90;98.90;;;;;;5047569;28;20209;-67
2022/09/08 04:16:04;;;;;;;4.47;3.50;;;18.90;98.80;;;;;;5036376;28;20205;-67
2022/09/08 04:18:31;;;;;;;4.43;3.10;;;18.90;98.80;;;;;;5036653;28;20710;-66
2022/09/08 04:21:01;;;;;;;3.60;3.13;;;18.80;98.90;;;;;;5047894;28;20588;-66
2022/09/08 04:23:29;;;;;;;5.27;3.40;;;18.80;98.90;;;;;;5043484;28;20224;-66
2022/09/08 04:25:57;;;;;;;5.90;3.40;;;18.80;98.80;;;;;;5052990;28;20215;-66
2022/09/08 04:28:24;;;;;;;4.27;3.40;;;18.80;98.90;;;;;;5046885;28;20212;-67
2022/09/08 04:30:50;;;;;;;4.50;3.30;;;18.90;98.80;;;;;;5047078;28;20208;-68
2022/09/08 04:33:18;;;;;;;4.43;3.30;;;18.90;98.80;;;;;;5030131;28;20680;-68
2022/09/08 04:35:45;;;;;;;6.40;3.60;;;18.90;98.70;;;;;;5038096;28;20208;-68
2022/09/08 04:38:13;;;;;;;5.70;3.60;;;18.80;98.70;;;;;;5044355;28;20216;-66
2022/09/08 04:40:40;;;;;;;7.10;3.73;;;18.80;98.70;;;;;;5027517;28;20219;-67
2022/09/08 04:43:07;;;;;;;5.97;3.97;;;18.80;98.60;;;;;;5046597;28;20228;-68
2022/09/08 04:45:34;;;;;;;6.77;3.30;;;18.80;98.60;;;;;;5048319;28;20208;-68
2022/09/08 04:48:00;;;;;;;4.00;3.50;;;18.70;98.70;;;;;;5046082;28;20291;-68
2022/09/08 04:50:27;;;;;;;10.47;4.70;;;18.70;98.60;;;;;;5036422;28;20722;-68
2022/09/08 04:52:54;;;;;;;5.77;3.40;;;18.70;98.70;;;;;;5028970;28;20212;-67
2022/09/08 04:55:22;;;;;;;8.00;3.37;;;18.70;98.50;;;;;;5052701;28;20219;-67
2022/09/08 04:57:49;;;;;;;7.17;3.20;;;18.70;98.60;;;;;;5049343;28;20212;-67
2022/09/08 05:00:18;;;;;;;6.60;3.33;;;18.70;98.50;;;;;;5036065;28;20201;-68
2022/09/08 05:02:46;;;;;;;9.63;3.27;;;18.70;98.40;;;;;;5029083;28;20239;-68
2022/09/08 05:05:12;;;;;;;4.57;3.17;;;18.70;98.50;;;;;;5028673;28;20213;-68
2022/09/08 05:07:39;;;;;;;4.63;3.27;;;18.80;98.30;;;;;;5029141;28;20225;-68
2022/09/08 05:10:07;;;;;;;6.07;3.67;;;18.80;98.40;;;;;;5029110;28;20208;-68
2022/09/08 05:12:35;;;;;;;5.77;3.27;;;18.70;98.30;;;;;;5029184;28;20618;-68
2022/09/08 05:15:02;;;;;;;8.93;3.50;;;18.60;98.40;;;;;;5037211;28;20211;-68
2022/09/08 05:17:30;;;;;;;11.57;3.67;;;18.60;98.50;;;;;;5048067;28;20223;-68
2022/09/08 05:19:56;;;;;;;4.00;3.20;;;18.60;98.40;;;;;;5048290;28;20578;-68
2022/09/08 05:22:23;;;;;;;7.73;3.80;;;18.70;98.50;;;;;;5047853;28;20566;-68
2022/09/08 05:24:52;;;;;;;9.73;3.30;;;18.70;98.50;;;;;;5047820;28;20219;-68
2022/09/08 05:27:19;;;;;;;9.67;3.90;;;18.70;98.50;;;;;;5047959;28;20200;-68
2022/09/08 05:29:47;;;;;;;22.53;5.27;;;18.70;98.50;;;;;;5048082;28;20569;-68
2022/09/08 05:32:14;;;;;;;7.30;3.90;;;18.80;98.50;;;;;;5047917;28;20804;-68
2022/09/08 05:34:41;;;;;;;7.57;3.37;;;18.80;98.60;;;;;;5047736;28;20208;-68
2022/09/08 05:37:07;;;;;;;4.70;3.63;;;18.80;98.50;;;;;;5048383;28;20211;-68
2022/09/08 05:39:34;;;;;;;6.47;3.63;;;18.90;98.50;;;;;;5046478;28;20200;-68
2022/09/08 05:42:01;;;;;;;6.77;3.67;;;18.90;98.60;;;;;;5037362;28;20208;-68
2022/09/08 05:44:28;;;;;;;4.87;3.90;;;18.90;98.50;;;;;;5048107;28;20594;-68
2022/09/08 05:46:56;;;;;;;10.33;3.67;;;18.90;98.30;;;;;;5047800;28;20208;-68
2022/09/08 05:49:22;;;;;;;5.33;3.83;;;18.90;98.50;;;;;;5048066;28;20220;-68
2022/09/08 05:51:52;;;;;;;5.37;3.77;;;18.70;98.50;;;;;;5058790;28;20976;-68
2022/09/08 05:54:19;;;;;;;4.27;3.43;;;18.70;98.70;;;;;;5047558;28;20486;-68
2022/09/08 05:56:46;;;;;;;8.10;3.87;;;18.70;98.70;;;;;;5046198;28;20214;-68
2022/09/08 05:59:13;;;;;;;8.27;3.90;;;18.70;98.70;;;;;;5029831;28;20204;-68
2022/09/08 06:01:40;;;;;;;6.10;4.00;;;18.70;98.60;;;;;;5028016;28;20421;-68
2022/09/08 06:04:08;;;;;;;8.93;4.07;;;18.70;98.60;;;;;;5044264;28;20228;-68
2022/09/08 06:06:35;;;;;;;7.97;3.97;;;18.60;98.40;;;;;;5047855;28;20212;-68
2022/09/08 06:09:03;;;;;;;5.87;3.80;;;18.70;98.50;;;;;;5047920;28;20228;-67
2022/09/08 06:11:32;;;;;;;9.43;3.97;;;18.60;98.70;;;;;;5047290;28;20215;-68
2022/09/08 06:13:59;;;;;;;6.73;3.83;;;18.60;98.90;;;;;;5046237;28;20200;-68
2022/09/08 06:16:26;;;;;;;12.07;5.67;;;18.50;98.90;;;;;;5033579;28;20212;-68
2022/09/08 06:18:53;;;;;;;4.60;4.00;;;18.50;98.90;;;;;;5034149;28;20246;-67
2022/09/08 06:21:23;;;;;;;7.37;4.00;;;18.50;98.80;;;;;;5047592;28;20209;-68
2022/09/08 06:23:51;;;;;;;7.43;3.70;;;18.50;98.90;;;;;;5047600;28;20228;-68
2022/09/08 06:26:45;;;;;;;6.57;3.87;;;18.60;98.90;;;;;;5047262;28;20211;-68
2022/09/08 06:29:19;;;;;;;11.87;4.63;;;18.60;99.10;;;;;;5044578;28;20192;-68
2022/09/08 06:31:51;;;;;;;8.57;3.93;;;18.70;99.20;;;;;;5047266;28;20207;-68
2022/09/08 06:34:22;;;;;;;7.67;3.47;;;18.70;99.00;;;;;;5047430;28;20282;-68
2022/09/08 06:36:53;;;;;;;6.03;4.10;;;18.80;98.90;;;;;;5047232;28;20201;-67
2022/09/08 06:39:24;;;;;;;6.03;4.00;;;18.80;98.90;;;;;;5046645;28;20207;-68
2022/09/08 06:41:57;;;;;;;5.23;3.60;;;18.70;98.80;;;;;;5040871;28;20215;-68
2022/09/08 06:44:30;;;;;;;5.40;3.43;;;18.60;98.90;;;;;;5047145;28;20224;-68
2022/09/08 06:46:58;;;;;;;8.63;4.03;;;18.70;98.90;;;;;;5052278;28;20206;-68
2022/09/08 06:49:27;;;;;;;9.87;3.90;;;18.70;98.80;;;;;;5039360;28;20236;-68
2022/09/08 06:52:01;;;;;;;7.57;3.97;;;18.60;98.90;;;;;;5027011;28;20212;-68
2022/09/08 06:54:41;;;;;;;8.73;3.97;;;18.70;98.90;;;;;;5036724;28;20239;-68
2022/09/08 06:57:32;;;;;;;26.77;5.63;;;18.70;99.00;;;;;;5047200;28;20216;-68
2022/09/08 07:00:09;;;;;;;7.30;4.20;;;18.70;98.80;;;;;;5045648;28;20203;-68
2022/09/08 07:03:00;;;;;;;5.17;3.63;;;18.60;99.00;;;;;;5047056;28;20220;-68
2022/09/08 07:05:40;;;;;;;5.83;4.27;;;18.70;99.10;;;;;;5047122;28;20203;-68
2022/09/08 07:08:19;;;;;;;8.37;4.27;;;18.70;99.20;;;;;;5046663;28;20192;-68
2022/09/08 07:10:51;;;;;;;9.67;5.00;;;18.70;99.30;;;;;;5027412;28;20197;-68
2022/09/08 07:13:26;;;;;;;6.90;4.10;;;18.80;99.30;;;;;;5027109;28;20201;-68
2022/09/08 07:16:01;;;;;;;4.20;3.90;;;18.80;99.20;;;;;;5034461;28;20208;-68
2022/09/08 07:18:38;;;;;;;8.87;4.27;;;18.90;99.30;;;;;;5050543;28;20200;-68
2022/09/08 07:21:19;;;;;;;15.70;5.20;;;18.90;99.20;;;;;;5050905;28;20189;-68
2022/09/08 07:23:49;;;;;;;13.07;4.70;;;19.00;99.30;;;;;;5050912;28;20281;-68
2022/09/08 07:26:21;;;;;;;8.77;3.90;;;19.00;99.40;;;;;;5041519;28;20626;-68
2022/09/08 07:28:51;;;;;;;6.60;4.03;;;19.00;99.20;;;;;;5050706;28;20527;-68
2022/09/08 07:31:21;;;;;;;5.93;4.33;;;19.10;99.30;;;;;;5048019;28;20226;-68
2022/09/08 07:33:53;;;;;;;6.83;4.37;;;19.10;99.10;;;;;;5033663;28;20235;-69
2022/09/08 07:36:27;;;;;;;10.83;4.10;;;19.20;99.20;;;;;;5030592;28;20200;-68
2022/09/08 07:38:57;;;;;;;13.10;4.73;;;19.20;99.40;;;;;;5037302;28;20200;-68
2022/09/08 07:41:31;;;;;;;5.50;4.50;;;19.30;99.50;;;;;;5050160;28;20208;-69
2022/09/08 07:44:00;;;;;;;8.10;4.33;;;19.40;99.50;;;;;;5060030;28;20227;-68
2022/09/08 07:46:39;;;;;;;6.30;4.70;;;19.40;99.40;;;;;;5049926;28;20208;-69
2022/09/08 07:49:14;;;;;;;6.00;4.30;;;19.40;99.30;;;;;;5050103;28;20254;-66
2022/09/08 07:51:50;;;;;;;11.47;4.90;;;19.40;99.40;;;;;;5050612;28;20203;-66
2022/09/08 07:54:41;;;;;;;7.03;4.47;;;19.40;99.50;;;;;;5049725;28;20250;-66
2022/09/08 07:57:15;;;;;;;5.47;4.30;;;19.40;99.70;;;;;;5050284;28;20617;-66
2022/09/08 07:59:46;;;;;;;9.07;4.63;;;19.50;99.70;;;;;;5050023;28;20200;-66
2022/09/08 08:02:32;;;;;;;11.17;4.07;;;19.50;99.90;;;;;;5049269;28;20188;-66
2022/09/08 08:05:08;;;;;;;5.93;4.50;;;19.60;99.90;;;;;;5049063;28;20979;-66
2022/09/08 08:07:45;;;;;;;9.03;4.53;;;19.60;99.90;;;;;;5050115;28;20188;-67
2022/09/08 08:10:24;;;;;;;7.60;4.57;;;19.60;99.90;;;;;;5049956;28;20232;-67
2022/09/08 08:12:58;;;;;;;7.20;4.43;;;19.50;99.90;;;;;;5050012;28;20294;-67
2022/09/08 08:15:30;;;;;;;7.87;4.20;;;19.50;99.90;;;;;;5049795;28;20654;-68
2022/09/08 08:18:08;;;;;;;7.60;4.67;;;19.50;99.90;;;;;;5049376;28;20188;-68
2022/09/08 08:20:45;;;;;;;9.77;4.87;;;19.50;99.90;;;;;;5049348;28;20648;-68
2022/09/08 08:23:24;;;;;;;13.60;5.70;;;19.50;99.90;;;;;;5049639;28;20204;-68
2022/09/08 08:25:58;;;;;;;8.07;4.60;;;19.40;99.90;;;;;;5049828;28;20188;-68
2022/09/08 08:28:24;;;;;;;7.83;4.83;;;19.40;99.90;;;;;;5045742;28;20188;-68
2022/09/08 08:31:05;;;;;;;10.30;4.80;;;19.30;99.90;;;;;;5029175;28;20215;-68
2022/09/08 08:33:36;;;;;;;7.87;4.90;;;19.20;99.90;;;;;;5047321;28;20690;-68
2022/09/08 08:36:07;;;;;;;9.23;5.30;;;19.20;99.90;;;;;;5049666;28;20204;-68
2022/09/08 08:38:36;;;;;;;5.60;5.10;;;19.10;99.90;;;;;;5049226;28;20196;-68
2022/09/08 08:41:13;;;;;;;10.87;5.20;;;19.10;99.90;;;;;;5060139;28;20215;-68
2022/09/08 08:43:56;;;;;;;7.77;5.23;;;19.10;99.90;;;;;;5048495;28;20999;-68
2022/09/08 08:46:45;;;;;;;9.20;5.37;;;19.00;99.90;;;;;;5029243;28;20193;-68
2022/09/08 08:49:35;;;;;;;8.03;5.70;;;19.00;99.90;;;;;;5028873;28;20229;-68
2022/09/08 08:52:36;;;;;;;5.53;4.73;;;19.00;99.90;;;;;;5031244;28;20290;-68
2022/09/08 08:55:19;;;;;;;7.83;5.50;;;19.00;99.90;;;;;;5051975;28;20243;-68
2022/09/08 08:58:00;;;;;;;8.73;4.77;;;19.00;99.90;;;;;;5049209;28;20199;-67
2022/09/08 09:00:37;;;;;;;10.83;5.50;;;19.00;99.90;;;;;;5030747;28;20200;-67
2022/09/08 09:03:23;;;;;;;7.03;5.17;;;19.00;99.90;;;;;;5029247;28;20199;-68
2022/09/08 09:06:00;;;;;;;10.30;5.37;;;19.00;99.90;;;;;;5029501;28;20663;-67
2022/09/08 09:09:06;;;;;;;7.90;5.93;;;19.10;99.90;;;;;;5048748;28;20222;-67
2022/09/08 09:11:55;;;;;;;10.43;5.77;;;19.00;99.90;;;;;;5015109;28;20212;-67
2022/09/08 09:14:56;;;;;;;7.50;5.90;;;19.00;99.90;;;;;;5038842;28;20212;-67
2022/09/08 09:17:46;;;;;;;10.77;5.77;;;18.90;99.90;;;;;;5042954;28;20211;-67
2022/09/08 09:20:42;;;;;;;8.83;6.20;;;18.80;99.90;;;;;;5046937;28;20203;-67
2022/09/08 09:23:16;;;;;;;7.87;5.63;;;18.80;99.90;;;;;;5048663;28;20204;-68
2022/09/08 09:25:53;;;;;;;9.00;6.30;;;18.70;99.90;;;;;;5028800;28;20220;-67
2022/09/08 09:28:55;;;;;;;10.67;6.23;;;18.70;99.90;;;;;;5028265;28;20366;-68
2022/09/08 09:31:49;;;;;;;7.87;6.23;;;18.70;99.90;;;;;;5040122;28;20234;-68
2022/09/08 09:34:29;;;;;;;7.37;6.00;;;18.70;99.90;;;;;;5027609;28;20211;-68
2022/09/08 09:37:33;;;;;;;9.80;6.23;;;18.70;99.90;;;;;;5043904;28;20204;-67
2022/09/08 09:40:14;;;;;;;18.83;7.40;;;18.60;99.90;;;;;;5047278;28;20219;-67
2022/09/08 09:43:16;;;;;;;9.83;7.00;;;18.50;99.90;;;;;;5028626;28;20544;-67
2022/09/08 09:45:58;;;;;;;10.63;6.87;;;18.40;99.90;;;;;;5041912;28;20228;-67
2022/09/08 09:48:58;;;;;;;14.47;7.43;;;18.30;99.90;;;;;;5028132;28;20197;-68
2022/09/08 09:51:41;;;;;;;12.80;7.63;;;18.20;99.90;;;;;;5029398;28;20204;-68
2022/09/08 09:54:40;;;;;;;7.63;6.50;;;18.20;99.90;;;;;;5035219;28;20235;-68
2022/09/08 09:57:37;;;;;;;12.13;7.37;;;18.10;99.90;;;;;;5047878;28;20790;-68
2022/09/08 10:00:18;;;;;;;9.43;7.20;;;18.20;99.90;;;;;;5047694;28;20651;-68
2022/09/08 10:03:32;;;;;;;10.50;7.37;;;18.20;99.90;;;;;;5045689;28;20279;-68
2022/09/08 10:06:23;;;;;;;12.83;7.20;;;18.20;99.90;;;;;;5046141;28;20713;-68
2022/09/08 10:09:14;;;;;;;10.87;6.90;;;18.10;99.90;;;;;;5047789;28;20197;-68
2022/09/08 10:12:23;;;;;;;9.93;6.97;;;18.10;99.90;;;;;;5033899;28;20211;-68
2022/09/08 10:15:24;;;;;;;10.17;6.83;;;18.20;99.90;;;;;;5014787;28;20216;-68
2022/09/08 10:18:34;;;;;;;9.57;7.07;;;18.20;99.90;;;;;;5044869;28;20220;-68
2022/09/08 10:21:33;;;;;;;14.87;7.30;;;18.20;99.90;;;;;;5047504;28;20208;-68
2022/09/08 10:24:24;;;;;;;8.93;7.30;;;18.00;99.90;;;;;;5018747;28;20814;-68
2022/09/08 10:27:27;;;;;;;10.10;7.47;;;17.40;99.90;;;;;;5067704;28;20199;-68
2022/09/08 10:30:21;;;;;;;10.60;7.73;;;16.90;99.90;;;;;;5067876;28;20205;-68
2022/09/08 10:33:29;;;;;;;8.90;7.43;;;16.60;99.90;;;;;;5054626;28;20295;-68
2022/09/08 10:36:06;;;;;;;10.20;7.97;;;16.30;99.90;;;;;;5030924;28;20393;-68
2022/09/08 10:38:51;;;;;;;12.10;8.20;;;16.10;99.90;;;;;;5031161;28;20188;-68
2022/09/08 10:45:08;;;;;;;13.57;9.13;;;15.90;99.90;;;;;;5145872;27;21271;-67
2022/09/08 10:47:59;;;;;;;15.27;9.37;;;16.10;99.90;;;;;;5146349;27;20196;-66
2022/09/08 10:50:28;;;;;;;12.63;8.83;;;16.20;99.90;;;;;;5146359;27;20261;-66
2022/09/08 10:53:19;;;;;;;10.37;8.70;;;16.40;99.90;;;;;;5146518;27;20213;-66
2022/09/08 10:56:05;;;;;;;12.33;8.57;;;16.60;99.90;;;;;;5132917;27;20190;-66
2022/09/08 10:59:05;;;;;;;12.37;8.07;;;16.50;99.90;;;;;;5125194;27;20186;-66
2022/09/08 11:02:10;;;;;;;10.50;8.60;;;16.60;99.90;;;;;;5138770;27;20208;-67
2022/09/08 11:05:31;;;;;;;12.93;8.70;;;16.80;99.90;;;;;;5146296;27;20212;-67
2022/09/08 11:08:23;;;;;;;9.63;8.67;;;17.00;99.90;;;;;;5145667;27;20193;-67
2022/09/08 11:11:21;;;;;;;12.03;8.23;;;17.10;99.90;;;;;;5146191;27;20212;-66
2022/09/08 11:14:01;;;;;;;9.87;8.03;;;17.20;99.90;;;;;;5084630;27;20297;-67
2022/09/08 11:16:54;;;;;;;11.30;8.80;;;17.20;99.90;;;;;;5125525;27;20208;-67
2022/09/08 11:19:39;;;;;;;8.97;7.47;;;17.30;99.90;;;;;;5135050;27;20204;-67
2022/09/08 11:22:25;;;;;;;11.37;8.27;;;17.40;99.90;;;;;;5146051;27;20232;-68
2022/09/08 11:25:04;;;;;;;8.97;7.50;;;17.40;99.90;;;;;;5145843;27;20756;-68
2022/09/08 11:27:40;;;;;;;8.30;7.50;;;17.40;99.90;;;;;;5145915;27;20196;-68
2022/09/08 11:30:15;;;;;;;11.20;8.10;;;17.40;99.90;;;;;;5125384;27;20205;-68
2022/09/08 11:32:52;;;;;;;8.90;8.13;;;17.50;99.90;;;;;;5124919;27;20189;-68
2022/09/08 11:35:32;;;;;;;9.30;7.93;;;17.60;99.90;;;;;;5124914;27;20193;-68
2022/09/08 11:38:19;;;;;;;11.90;8.20;;;17.60;99.90;;;;;;5125114;27;20545;-68
2022/09/08 11:41:26;;;;;;;9.07;7.57;;;17.40;99.90;;;;;;5124970;27;20194;-68
2022/09/08 11:44:16;;;;;;;11.63;7.93;;;17.60;99.90;;;;;;5125163;27;20245;-68
2022/09/08 11:47:04;;;;;;;11.80;8.20;;;17.60;99.90;;;;;;5143036;27;20568;-68
2022/09/08 11:50:08;;;;;;;9.63;8.10;;;17.70;99.90;;;;;;5145181;27;20229;-68
2022/09/08 11:53:00;;;;;;;10.40;8.30;;;17.70;99.90;;;;;;5131238;27;20205;-68
2022/09/08 11:55:49;;;;;;;9.30;8.37;;;17.80;99.90;;;;;;5124760;27;20229;-69
2022/09/08 11:58:29;;;;;;;11.33;9.50;;;17.80;99.90;;;;;;5110594;28;20683;-68
2022/09/08 12:01:14;;;;;;;9.47;8.60;;;17.90;99.90;;;;;;5110695;28;20220;-67
2022/09/08 12:04:03;;;;;;;10.40;9.20;;;17.90;99.90;;;;;;5110758;28;20218;-68
2022/09/08 12:07:00;;;;;;;11.77;9.50;;;17.90;99.90;;;;;;5110663;27;20187;-68
2022/09/08 12:10:01;;;;;;;11.83;9.20;;;18.00;99.90;;;;;;5120578;27;20202;-68
2022/09/08 12:12:42;;;;;;;11.43;9.17;;;18.10;99.90;;;;;;5131086;27;20208;-68
2022/09/08 12:15:40;;;;;;;10.90;9.47;;;18.20;99.90;;;;;;5130817;27;20660;-68
2022/09/08 12:18:19;;;;;;;11.33;9.13;;;18.20;99.90;;;;;;5125506;27;20229;-68
2022/09/08 12:20:58;;;;;;;11.77;10.30;;;18.30;99.90;;;;;;5110458;27;20637;-68
2022/09/08 12:23:36;;;;;;;13.13;9.70;;;18.30;99.90;;;;;;5111711;27;20596;-68
2022/09/08 12:26:22;;;;;;;11.37;9.97;;;18.30;99.90;;;;;;5123138;27;20206;-68
2022/09/08 12:28:59;;;;;;;11.53;9.23;;;18.30;99.90;;;;;;5109493;27;20665;-67
2022/09/08 12:31:43;;;;;;;11.13;10.10;;;18.40;99.90;;;;;;5117070;27;20196;-68
2022/09/08 12:34:38;;;;;;;12.27;10.27;;;18.30;99.90;;;;;;5130670;27;20205;-68
2022/09/08 12:37:13;;;;;;;13.40;11.27;;;18.30;99.90;;;;;;5130393;27;20557;-68
2022/09/08 12:40:11;;;;;;;11.80;10.43;;;18.40;99.90;;;;;;5116828;27;20185;-67
2022/09/08 12:43:12;;;;;;;12.37;10.40;;;18.40;99.90;;;;;;5114631;27;20233;-68
2022/09/08 12:45:51;;;;;;;12.70;11.23;;;18.40;99.90;;;;;;5118552;27;20581;-68
2022/09/08 12:48:28;;;;;;;13.57;12.17;;;18.40;99.90;;;;;;5130274;27;20193;-67
2022/09/08 12:51:05;;;;;;;12.70;11.17;;;18.50;99.90;;;;;;5130357;27;20190;-67
2022/09/08 12:54:04;;;;;;;13.27;12.00;;;18.60;99.90;;;;;;5133683;27;20558;-68
2022/09/08 12:56:44;;;;;;;15.03;12.50;;;18.60;99.90;;;;;;5130446;27;20185;-68
2022/09/08 12:59:22;;;;;;;15.67;10.93;;;18.70;99.90;;;;;;5130581;27;20190;-68
2022/09/08 13:01:58;;;;;;;12.57;11.30;;;18.80;99.90;;;;;;5127657;27;20204;-67
2022/09/08 13:04:51;;;;;;;13.10;11.70;;;18.90;99.90;;;;;;5137478;27;20216;-67
2022/09/08 13:07:28;;;;;;;14.40;12.47;;;19.00;99.90;;;;;;5106235;28;20201;-67
2022/09/08 13:10:07;;;;;;;12.47;11.27;;;19.00;99.90;;;;;;5107960;28;20204;-67
2022/09/08 13:13:07;;;;;;;12.53;11.23;;;19.00;99.90;;;;;;5107345;28;20198;-66
2022/09/08 13:15:41;;;;;;;14.37;11.27;;;19.00;99.90;;;;;;5106468;28;20998;-66
2022/09/08 13:18:21;;;;;;;12.07;10.83;;;19.10;99.90;;;;;;5106773;28;20535;-67
2022/09/08 13:20:53;;;;;;;12.70;11.53;;;19.10;99.90;;;;;;5113268;27;20201;-67
2022/09/08 13:23:36;;;;;;;13.10;11.53;;;19.20;99.90;;;;;;5127198;27;20256;-67
2022/09/08 13:26:32;;;;;;;15.47;12.27;;;19.30;99.90;;;;;;5127142;27;20193;-67
2022/09/08 13:29:20;;;;;;;13.47;11.50;;;19.30;99.90;;;;;;5122063;27;20187;-67
2022/09/08 13:31:55;;;;;;;12.93;11.60;;;19.40;99.90;;;;;;5106188;27;20683;-67
2022/09/08 13:34:40;;;;;;;15.30;11.93;;;19.30;99.90;;;;;;5106626;28;20213;-66
2022/09/08 13:37:18;;;;;;;13.83;12.43;;;19.40;99.90;;;;;;5106752;28;20221;-66